Dera Bugti Weather



Dera Bugti's Current Weather

Temprature 31.1o clear sky

clear sky

Rain: 0 %

Min Temprature31.1o
Max Temprature31.1o
Humidity9
Wind Speed0.92 m/h
Sun Rise06:25:49
Sun Set17:51:11
Current Time: 18-Oct-2019 16:12:40
Lat/Lon: 29.03, 69.15




Dera Bugti's Geo Location



Dera Bugti's Weather Forecast

Time Overall Temp Min Temp Max Temp Humidity Wind Speed Rain
18-Oct-2019 (Fri)
17:00:00 clear sky 30.780 30.780 31.100 9 0.92 m/h 0 %
20:00:00 clear sky 26.610 26.610 26.850 17 0.82 m/h 0 %
23:00:00 clear sky 25.130 25.130 25.288 20 1.67 m/h 0 %
19-Oct-2019 (Sat)
02:00:00 clear sky 23.840 23.840 23.918 36 2.09 m/h 0 %
05:00:00 clear sky 22.503 22.503 22.503 41 2.53 m/h 0 %
08:00:00 clear sky 24.011 24.011 24.011 37 2.24 m/h 0 %
11:00:00 clear sky 28.550 28.550 28.550 24 1.85 m/h 0 %
14:00:00 clear sky 30.716 30.716 30.716 16 0.5 m/h 0 %
17:00:00 clear sky 30.782 30.782 30.782 14 1.69 m/h 0 %
20:00:00 clear sky 27.128 27.128 27.128 24 0.7 m/h 0 %
23:00:00 clear sky 25.797 25.797 25.797 27 1.76 m/h 0 %
20-Oct-2019 (Sun)
02:00:00 few clouds 23.687 23.687 23.687 32 0.17 m/h 0 %
05:00:00 clear sky 22.874 22.874 22.874 32 1.04 m/h 0 %
08:00:00 clear sky 26.202 26.202 26.202 27 1 m/h 0 %
11:00:00 clear sky 29.580 29.580 29.580 20 2.12 m/h 0 %
14:00:00 clear sky 31.012 31.012 31.012 17 3.12 m/h 0 %
17:00:00 clear sky 30.588 30.588 30.588 16 3.14 m/h 0 %
20:00:00 clear sky 26.752 26.752 26.752 25 0.51 m/h 0 %
23:00:00 clear sky 25.147 25.147 25.147 26 0.79 m/h 0 %
21-Oct-2019 (Mon)
02:00:00 clear sky 23.720 23.720 23.720 27 0.69 m/h 0 %
05:00:00 clear sky 22.531 22.531 22.531 29 0.71 m/h 0 %
08:00:00 clear sky 26.109 26.109 26.109 24 1.03 m/h 0 %
11:00:00 clear sky 30.337 30.337 30.337 15 1.44 m/h 0 %
14:00:00 clear sky 31.795 31.795 31.795 12 3.21 m/h 0 %
17:00:00 clear sky 31.114 31.114 31.114 12 3.24 m/h 0 %
20:00:00 clear sky 26.594 26.594 26.594 20 0.37 m/h 0 %
23:00:00 clear sky 25.000 25.000 25.000 20 0.96 m/h 0 %
22-Oct-2019 (Tue)
02:00:00 clear sky 23.316 23.316 23.316 22 0.52 m/h 0 %
05:00:00 clear sky 22.149 22.149 22.149 23 0.54 m/h 0 %
08:00:00 clear sky 25.552 25.552 25.552 22 0.32 m/h 0 %
11:00:00 clear sky 29.859 29.859 29.859 16 1.95 m/h 0 %
14:00:00 clear sky 31.839 31.839 31.839 10 3.37 m/h 0 %
17:00:00 clear sky 30.992 30.992 30.992 10 3.87 m/h 0 %
20:00:00 clear sky 27.450 27.450 27.450 13 2.29 m/h 0 %
23:00:00 clear sky 25.949 25.949 25.949 14 2.54 m/h 0 %
23-Oct-2019 (Wed)
02:00:00 clear sky 24.276 24.276 24.276 16 1.78 m/h 0 %
05:00:00 clear sky 22.227 22.227 22.227 19 1.12 m/h 0 %
08:00:00 clear sky 24.949 24.949 24.949 18 3.31 m/h 0 %
11:00:00 clear sky 29.035 29.035 29.035 12 6.42 m/h 0 %
14:00:00 clear sky 30.709 30.709 30.709 12 6.12 m/h 0 %

Famous Cities (61)